Time;durP1;ratioP1;P1;durP2;ratioP2;P2;SDS_P1;SDS_P2;PMS_P1;PMS_P2;Temp;Humidity;BMP_temperature;BMP_pressure;BME280_temperature;BME280_humidity;BME280_pressure;Samples;Min_cycle;Max_cycle;Signal;HPM_P1;HPM_P2
2022/01/20 00:03:41;;;;;;;5.40;2.15;;;17.80;55.00;;;;;;5073041;28;20189;-59
2022/01/20 00:28:11;;;;;;;4.85;2.30;;;17.70;55.10;;;;;;5071971;28;20181;-61
2022/01/20 00:30:56;;;;;;;4.68;2.30;;;17.70;55.10;;;;;;5072333;28;20178;-62
2022/01/20 00:33:35;;;;;;;4.55;2.03;;;17.60;55.00;;;;;;5072396;28;20617;-61
2022/01/20 00:38:31;;;;;;;5.30;2.60;;;17.60;55.00;;;;;;5072197;28;20197;-61
2022/01/20 00:40:57;;;;;;;2.92;1.77;;;17.60;55.00;;;;;;5072868;28;20166;-60
2022/01/20 00:43:23;;;;;;;3.60;2.08;;;17.60;55.00;;;;;;5071550;28;20635;-61
2022/01/20 00:45:49;;;;;;;5.00;2.38;;;17.60;55.00;;;;;;5072563;28;20182;-68
2022/01/20 00:48:14;;;;;;;4.53;2.13;;;17.60;55.00;;;;;;5071990;28;20171;-61
2022/01/20 00:50:43;;;;;;;3.60;1.92;;;17.60;55.00;;;;;;5072251;28;20595;-62
2022/01/20 00:53:08;;;;;;;5.22;2.35;;;17.60;55.00;;;;;;5072375;28;20174;-62
2022/01/20 00:55:35;;;;;;;4.50;2.10;;;17.60;55.00;;;;;;5071592;28;20175;-62
2022/01/20 00:58:00;;;;;;;4.60;2.30;;;17.50;55.00;;;;;;5072122;28;20580;-61
2022/01/20 01:00:26;;;;;;;3.45;2.13;;;17.50;55.00;;;;;;5071969;28;20174;-62
2022/01/20 01:02:51;;;;;;;3.40;2.30;;;17.50;55.00;;;;;;5071529;28;20261;-60
2022/01/20 01:05:17;;;;;;;5.18;2.63;;;17.50;55.00;;;;;;5072125;28;20183;-60
2022/01/20 01:07:47;;;;;;;5.57;2.05;;;17.50;54.90;;;;;;5071820;28;20178;-60
2022/01/20 01:10:15;;;;;;;4.72;2.35;;;17.50;54.90;;;;;;5071690;28;20315;-60
2022/01/20 01:15:20;;;;;;;5.10;2.53;;;17.40;54.90;;;;;;5072208;28;20175;-62
2022/01/20 01:20:34;;;;;;;3.72;2.30;;;17.40;55.00;;;;;;5071717;28;20300;-62
2022/01/20 01:23:02;;;;;;;4.25;2.00;;;17.40;55.00;;;;;;5071968;28;20645;-60
2022/01/20 01:25:28;;;;;;;3.83;2.10;;;17.50;55.00;;;;;;5070773;28;20636;-61
2022/01/20 01:27:54;;;;;;;4.60;2.10;;;17.40;55.00;;;;;;5072068;28;20174;-61
2022/01/20 01:30:33;;;;;;;4.70;2.20;;;17.40;55.00;;;;;;5071074;28;20185;-61
2022/01/20 01:32:58;;;;;;;3.38;1.80;;;17.40;54.90;;;;;;5072117;28;20182;-61
2022/01/20 01:35:26;;;;;;;2.22;1.60;;;17.40;55.00;;;;;;5071622;28;20173;-60
2022/01/20 01:40:20;;;;;;;5.63;2.25;;;17.30;54.90;;;;;;5071513;28;20620;-61
2022/01/20 01:42:49;;;;;;;4.53;2.03;;;17.40;54.90;;;;;;5071732;28;20182;-61
2022/01/20 01:45:19;;;;;;;5.60;2.15;;;17.30;54.90;;;;;;5070871;28;20203;-61
2022/01/20 01:47:48;;;;;;;4.15;2.20;;;17.30;55.00;;;;;;5071852;28;20178;-61
2022/01/20 01:50:13;;;;;;;3.55;1.63;;;17.30;54.90;;;;;;5071450;28;20214;-61
2022/01/20 01:52:39;;;;;;;3.35;1.80;;;17.30;54.90;;;;;;5070536;28;20189;-62
2022/01/20 01:55:05;;;;;;;6.07;2.45;;;17.30;55.00;;;;;;5071666;28;20171;-61
2022/01/20 01:57:30;;;;;;;4.88;1.95;;;17.30;55.00;;;;;;5071223;28;20877;-61
2022/01/20 01:59:56;;;;;;;3.45;2.00;;;17.30;54.90;;;;;;5070876;28;20174;-61
2022/01/20 02:02:22;;;;;;;5.78;2.10;;;17.30;54.90;;;;;;5071302;28;20203;-61
2022/01/20 02:04:49;;;;;;;5.47;2.55;;;17.20;54.90;;;;;;5075030;28;20597;-61
2022/01/20 02:07:41;;;;;;;3.28;2.15;;;17.20;54.90;;;;;;5074861;28;20290;-61
2022/01/20 02:20:51;;;;;;;4.90;1.73;;;17.20;54.80;;;;;;5074447;28;20633;-60
2022/01/20 02:23:17;;;;;;;3.75;2.00;;;17.20;54.90;;;;;;5075211;28;20182;-61
2022/01/20 02:25:42;;;;;;;4.03;1.95;;;17.20;54.80;;;;;;5074800;28;20171;-61
2022/01/20 02:28:09;;;;;;;3.58;1.77;;;17.10;54.80;;;;;;5074242;28;20546;-60
2022/01/20 02:30:35;;;;;;;3.70;1.95;;;17.20;54.80;;;;;;5074668;28;20178;-62
2022/01/20 02:33:02;;;;;;;3.95;1.88;;;17.20;54.90;;;;;;5074693;28;20185;-61
2022/01/20 02:35:30;;;;;;;4.43;2.25;;;17.10;54.90;;;;;;5073787;28;20236;-61
2022/01/20 02:38:01;;;;;;;4.70;1.90;;;17.10;54.90;;;;;;5074562;28;20688;-61
2022/01/20 02:44:49;;;;;;;4.90;2.00;;;17.10;54.90;;;;;;5074409;28;20180;-61
2022/01/20 02:46:04;;;;;;;3.88;1.85;;;17.10;54.90;;;;;;5074594;28;20300;-62
2022/01/20 02:48:30;;;;;;;5.28;2.13;;;17.10;54.90;;;;;;5073455;28;20175;-61
2022/01/20 02:50:57;;;;;;;2.75;1.80;;;17.10;54.90;;;;;;5074291;28;20320;-61
2022/01/20 02:53:22;;;;;;;4.18;1.75;;;17.10;55.10;;;;;;5073999;28;20644;-61
2022/01/20 02:55:48;;;;;;;3.28;1.65;;;17.00;54.80;;;;;;5073679;28;20166;-63
2022/01/20 02:58:13;;;;;;;3.00;1.70;;;17.00;54.90;;;;;;5074484;28;20267;-62
2022/01/20 03:00:39;;;;;;;3.72;1.50;;;17.00;54.80;;;;;;5074368;28;20170;-62
2022/01/20 03:03:04;;;;;;;3.72;1.67;;;17.00;54.80;;;;;;5073483;28;20178;-60
2022/01/20 03:05:33;;;;;;;5.57;1.85;;;17.00;54.80;;;;;;5073938;28;20206;-61
2022/01/20 03:08:00;;;;;;;3.60;1.88;;;17.00;54.80;;;;;;5074227;28;20243;-60
2022/01/20 03:10:26;;;;;;;2.53;1.35;;;17.00;54.80;;;;;;5073063;28;20175;-62
2022/01/20 03:12:51;;;;;;;4.65;1.90;;;17.00;54.80;;;;;;5073980;28;20225;-62
2022/01/20 03:15:17;;;;;;;3.03;1.60;;;17.00;54.80;;;;;;5072671;28;20239;-62
2022/01/20 03:17:42;;;;;;;4.63;2.25;;;17.00;54.80;;;;;;5072990;28;20209;-62
2022/01/20 03:20:08;;;;;;;2.92;1.60;;;17.00;54.90;;;;;;5074076;28;20269;-61
2022/01/20 03:22:34;;;;;;;2.72;1.63;;;17.00;54.90;;;;;;5073835;28;20178;-61
2022/01/20 03:24:59;;;;;;;3.53;1.60;;;17.00;54.90;;;;;;5073345;28;20196;-60
2022/01/20 03:27:25;;;;;;;4.47;1.98;;;16.90;54.80;;;;;;5074022;28;20247;-61
2022/01/20 03:29:50;;;;;;;3.85;1.70;;;16.90;54.80;;;;;;5073786;28;20253;-61
2022/01/20 03:32:16;;;;;;;4.78;2.30;;;16.90;54.90;;;;;;5073590;28;20787;-61
2022/01/20 03:34:41;;;;;;;3.05;1.58;;;16.90;54.80;;;;;;5073691;28;20178;-61
2022/01/20 03:37:07;;;;;;;2.50;1.80;;;16.90;54.90;;;;;;5073276;28;20206;-61
2022/01/20 03:39:33;;;;;;;3.35;1.77;;;16.90;54.90;;;;;;5073614;28;20170;-60
2022/01/20 03:42:01;;;;;;;2.33;1.45;;;16.90;54.90;;;;;;5074044;28;20183;-60
2022/01/20 03:44:27;;;;;;;2.60;1.58;;;16.90;54.80;;;;;;5072896;28;20181;-61
2022/01/20 03:46:52;;;;;;;2.58;1.55;;;16.90;54.80;;;;;;5073764;28;20171;-61
2022/01/20 03:49:40;;;;;;;3.55;1.67;;;16.90;54.80;;;;;;5073501;28;20166;-61
2022/01/20 03:52:07;;;;;;;3.90;1.88;;;16.90;54.90;;;;;;5072734;28;20201;-61
2022/01/20 03:54:33;;;;;;;3.80;1.60;;;16.90;54.80;;;;;;5073319;28;20180;-62
2022/01/20 03:56:59;;;;;;;4.05;1.63;;;16.80;54.80;;;;;;5073350;28;20210;-61
2022/01/20 03:59:24;;;;;;;2.80;1.42;;;16.80;54.80;;;;;;5072570;28;20242;-61
2022/01/20 04:01:49;;;;;;;2.58;1.73;;;16.80;54.80;;;;;;5073445;28;20632;-61
2022/01/20 04:04:15;;;;;;;3.35;1.60;;;16.80;54.80;;;;;;5073303;28;20189;-61
2022/01/20 04:06:40;;;;;;;5.20;1.80;;;16.80;54.90;;;;;;5072168;28;20170;-61
2022/01/20 04:09:06;;;;;;;3.28;1.60;;;16.80;54.90;;;;;;5073328;28;20288;-61
2022/01/20 04:11:31;;;;;;;5.00;1.55;;;16.80;54.90;;;;;;5073036;28;20178;-62
2022/01/20 04:13:57;;;;;;;3.65;1.65;;;16.80;54.90;;;;;;5072469;28;20650;-62
2022/01/20 04:16:33;;;;;;;2.67;1.42;;;16.80;54.90;;;;;;5072801;28;20614;-62
2022/01/20 04:19:00;;;;;;;3.00;1.50;;;16.70;54.90;;;;;;5072985;28;20175;-61
2022/01/20 04:21:29;;;;;;;3.45;1.67;;;16.80;55.00;;;;;;5071800;28;20197;-61
2022/01/20 04:23:55;;;;;;;5.30;2.50;;;16.80;55.00;;;;;;5073059;28;20231;-61
2022/01/20 04:26:21;;;;;;;2.50;1.35;;;16.70;55.00;;;;;;5071538;28;20182;-61
2022/01/20 04:28:48;;;;;;;3.95;1.70;;;16.70;55.00;;;;;;5073661;28;20201;-61
2022/01/20 04:31:13;;;;;;;2.80;1.40;;;16.70;54.90;;;;;;5072751;28;20717;-60
2022/01/20 04:33:39;;;;;;;3.90;1.60;;;16.70;55.00;;;;;;5071744;28;20257;-60
2022/01/20 04:36:06;;;;;;;2.45;1.52;;;16.70;55.00;;;;;;5072578;28;20541;-60
2022/01/20 04:38:31;;;;;;;2.83;1.30;;;16.70;55.00;;;;;;5072523;28;20205;-61
2022/01/20 04:40:57;;;;;;;3.33;1.33;;;16.70;55.00;;;;;;5072021;28;20198;-60
2022/01/20 04:43:24;;;;;;;3.63;1.70;;;16.70;55.00;;;;;;5072318;28;20236;-61
2022/01/20 04:45:58;;;;;;;1.63;1.17;;;16.70;54.90;;;;;;5072540;28;20269;-61
2022/01/20 04:48:32;;;;;;;2.33;1.40;;;16.70;54.90;;;;;;5071303;28;20182;-61
2022/01/20 04:59:09;;;;;;;3.50;1.55;;;16.70;55.00;;;;;;5072316;28;20643;-61
2022/01/20 05:01:34;;;;;;;3.35;1.55;;;16.60;54.90;;;;;;5071320;28;20174;-61
2022/01/20 05:04:02;;;;;;;4.55;1.73;;;16.60;54.90;;;;;;5072269;28;20633;-61
2022/01/20 05:06:28;;;;;;;2.63;1.30;;;16.60;54.90;;;;;;5071816;28;20573;-63
2022/01/20 05:08:53;;;;;;;3.25;1.30;;;16.60;54.90;;;;;;5071593;28;20268;-61
2022/01/20 05:11:19;;;;;;;5.00;1.85;;;16.60;54.90;;;;;;5071689;28;20459;-61
2022/01/20 05:13:47;;;;;;;2.53;1.60;;;16.60;54.90;;;;;;5072041;28;20186;-63
2022/01/20 05:16:13;;;;;;;2.33;1.33;;;16.60;54.90;;;;;;5071143;28;20585;-62
2022/01/20 05:18:38;;;;;;;2.92;1.58;;;16.60;54.90;;;;;;5071911;28;20222;-63
2022/01/20 05:21:04;;;;;;;2.70;1.45;;;16.60;54.90;;;;;;5071932;28;20179;-61
2022/01/20 05:23:29;;;;;;;2.40;1.40;;;16.50;54.90;;;;;;5070838;28;20169;-62
2022/01/20 05:25:55;;;;;;;2.95;1.30;;;16.60;55.00;;;;;;5071639;28;20175;-62
2022/01/20 05:28:20;;;;;;;2.38;1.13;;;16.60;54.90;;;;;;5071566;28;20213;-62
2022/01/20 05:30:46;;;;;;;2.10;1.17;;;16.60;55.00;;;;;;5071004;28;20170;-61
2022/01/20 05:33:11;;;;;;;4.35;1.60;;;16.50;54.90;;;;;;5072005;28;20632;-61
2022/01/20 05:35:37;;;;;;;2.80;1.25;;;16.50;54.80;;;;;;5071768;28;20662;-61
2022/01/20 05:38:02;;;;;;;1.83;1.05;;;16.50;54.90;;;;;;5071766;28;20209;-61
2022/01/20 05:40:28;;;;;;;3.40;1.58;;;16.50;54.90;;;;;;5075599;28;20170;-61
2022/01/20 05:42:53;;;;;;;3.35;1.73;;;16.50;54.90;;;;;;5076085;28;20189;-61
2022/01/20 05:45:19;;;;;;;2.80;1.58;;;16.50;54.90;;;;;;5075115;28;20185;-60
2022/01/20 05:47:47;;;;;;;2.85;1.30;;;16.50;54.90;;;;;;5076104;28;20190;-61
2022/01/20 05:50:15;;;;;;;3.20;1.45;;;16.50;54.90;;;;;;5075892;28;20229;-61
2022/01/20 05:52:43;;;;;;;2.45;1.20;;;16.50;54.90;;;;;;5074840;28;20208;-63
2022/01/20 05:55:12;;;;;;;3.10;1.13;;;16.50;54.90;;;;;;5075599;28;20178;-61
2022/01/20 05:57:37;;;;;;;2.10;1.20;;;16.40;54.90;;;;;;5074651;28;20214;-61
2022/01/20 06:00:07;;;;;;;3.25;1.10;;;16.50;55.50;;;;;;5075618;28;20234;-61
2022/01/20 06:02:36;;;;;;;2.85;1.50;;;16.50;55.00;;;;;;5075035;28;20701;-61
2022/01/20 06:05:05;;;;;;;2.42;1.27;;;16.50;54.90;;;;;;5074738;28;20210;-60
2022/01/20 06:07:31;;;;;;;4.20;1.67;;;16.40;54.90;;;;;;5074784;28;20253;-60
2022/01/20 06:09:56;;;;;;;3.08;1.70;;;16.40;54.90;;;;;;5075384;28;20167;-61
2022/01/20 06:12:22;;;;;;;2.88;1.48;;;16.40;54.90;;;;;;5074370;28;20193;-62
2022/01/20 06:14:47;;;;;;;3.60;1.70;;;16.40;54.90;;;;;;5074997;28;20661;-63
2022/01/20 06:17:13;;;;;;;1.95;1.30;;;16.40;55.00;;;;;;5075089;28;20267;-61
2022/01/20 06:19:38;;;;;;;3.20;1.30;;;16.40;54.90;;;;;;5073964;28;20170;-62
2022/01/20 06:22:04;;;;;;;4.20;1.30;;;16.40;54.90;;;;;;5074962;28;20177;-61
2022/01/20 06:24:29;;;;;;;3.80;1.60;;;16.40;54.90;;;;;;5074771;28;20162;-61
2022/01/20 06:26:55;;;;;;;3.83;1.50;;;16.40;55.50;;;;;;5074164;28;20182;-61
2022/01/20 06:29:20;;;;;;;3.25;1.33;;;16.40;54.90;;;;;;5074608;28;20202;-60
2022/01/20 06:31:46;;;;;;;2.88;1.23;;;16.40;54.90;;;;;;5074987;28;20590;-62
2022/01/20 06:34:11;;;;;;;2.95;1.42;;;16.40;54.90;;;;;;5074194;28;20261;-61
2022/01/20 06:36:37;;;;;;;2.53;1.27;;;16.30;54.90;;;;;;5074436;28;20260;-62
2022/01/20 06:39:02;;;;;;;2.35;1.52;;;16.40;54.90;;;;;;5074789;28;20606;-61
2022/01/20 06:41:28;;;;;;;3.05;1.67;;;16.30;54.80;;;;;;5073808;28;20216;-61
2022/01/20 06:43:54;;;;;;;2.83;1.45;;;16.30;54.90;;;;;;5074756;28;20246;-61
2022/01/20 06:46:19;;;;;;;2.78;1.30;;;16.30;54.80;;;;;;5074127;28;20286;-61
2022/01/20 06:48:48;;;;;;;3.10;1.55;;;16.30;54.90;;;;;;5073576;28;20648;-61
2022/01/20 06:51:13;;;;;;;2.72;1.45;;;16.30;54.80;;;;;;5074137;28;20222;-61
2022/01/20 06:53:39;;;;;;;4.00;1.88;;;16.30;54.80;;;;;;5074130;28;20170;-61
2022/01/20 06:56:04;;;;;;;2.28;1.30;;;16.30;54.90;;;;;;5073836;28;20178;-61
2022/01/20 06:58:32;;;;;;;2.75;1.25;;;16.20;54.80;;;;;;5074145;28;20214;-61
2022/01/20 07:00:57;;;;;;;3.33;1.42;;;16.30;54.90;;;;;;5073679;28;20291;-61
2022/01/20 07:03:23;;;;;;;2.05;1.20;;;16.30;54.90;;;;;;5073989;28;20186;-60
2022/01/20 07:05:48;;;;;;;2.53;1.35;;;16.30;54.90;;;;;;5074206;28;20190;-59
2022/01/20 07:08:14;;;;;;;3.47;1.50;;;16.20;54.70;;;;;;5073655;28;21015;-60
2022/01/20 07:10:39;;;;;;;2.75;1.25;;;16.20;54.80;;;;;;5074082;28;20175;-61
2022/01/20 07:13:05;;;;;;;3.17;1.00;;;16.20;54.90;;;;;;5074124;28;20210;-61
2022/01/20 07:15:30;;;;;;;3.15;1.20;;;16.20;54.80;;;;;;5073183;28;20270;-61
2022/01/20 07:17:56;;;;;;;1.88;1.10;;;16.20;54.80;;;;;;5074016;28;20256;-60
2022/01/20 07:20:21;;;;;;;2.97;1.27;;;16.20;54.80;;;;;;5073785;28;20250;-61
2022/01/20 07:22:47;;;;;;;3.28;1.48;;;16.20;54.80;;;;;;5073342;28;20175;-61
2022/01/20 07:25:12;;;;;;;3.80;1.42;;;16.20;54.80;;;;;;5073955;28;20244;-61
2022/01/20 07:27:38;;;;;;;1.75;1.00;;;16.20;54.80;;;;;;5073338;28;20593;-61
2022/01/20 07:30:04;;;;;;;2.67;1.25;;;16.20;54.80;;;;;;5073295;28;20456;-63
2022/01/20 07:32:29;;;;;;;3.42;1.58;;;16.20;55.20;;;;;;5073621;28;20196;-64
2022/01/20 07:34:55;;;;;;;2.53;1.67;;;16.20;55.00;;;;;;5073717;28;20641;-64
2022/01/20 07:37:20;;;;;;;3.70;1.23;;;16.20;54.80;;;;;;5072459;28;20213;-64
2022/01/20 07:39:49;;;;;;;3.25;1.40;;;16.30;54.70;;;;;;5073834;28;20652;-65
2022/01/20 07:42:15;;;;;;;3.40;1.20;;;16.30;54.60;;;;;;5073735;28;20178;-64
2022/01/20 07:44:40;;;;;;;1.90;1.10;;;16.50;54.90;;;;;;5072122;28;20225;-64
2022/01/20 07:47:06;;;;;;;1.75;1.00;;;16.60;54.60;;;;;;5073769;28;20228;-62
2022/01/20 07:49:31;;;;;;;2.50;1.10;;;16.80;54.50;;;;;;5073109;28;20313;-63
2022/01/20 07:51:57;;;;;;;5.28;1.88;;;17.00;54.60;;;;;;5072970;28;20186;-67
2022/01/20 07:54:22;;;;;;;3.22;1.38;;;17.30;54.60;;;;;;5073371;28;20174;-65
2022/01/20 07:56:49;;;;;;;3.78;1.70;;;17.50;54.10;;;;;;5073549;28;20259;-65
2022/01/20 07:59:15;;;;;;;5.40;2.17;;;17.80;53.80;;;;;;5072887;28;20185;-66
2022/01/20 08:01:40;;;;;;;10.95;1.35;;;18.00;53.30;;;;;;5072340;28;20179;-66
2022/01/20 08:04:06;;;;;;;2.63;1.10;;;18.20;52.90;;;;;;5073224;28;20170;-66
2022/01/20 08:06:31;;;;;;;2.70;1.10;;;18.20;52.70;;;;;;5072256;28;20178;-65
2022/01/20 08:08:57;;;;;;;2.60;1.23;;;18.30;52.80;;;;;;5073320;28;20224;-63
2022/01/20 08:11:22;;;;;;;4.22;1.25;;;18.30;52.80;;;;;;5072316;28;20162;-65
2022/01/20 08:13:48;;;;;;;2.78;1.38;;;18.20;52.80;;;;;;5073279;28;20179;-64
2022/01/20 08:16:16;;;;;;;4.75;1.27;;;18.20;53.00;;;;;;5072946;28;20178;-65
2022/01/20 08:18:42;;;;;;;2.78;1.02;;;18.20;52.90;;;;;;5071922;28;20672;-63
2022/01/20 08:21:07;;;;;;;4.80;1.30;;;18.20;53.00;;;;;;5073239;28;20257;-64
2022/01/20 08:23:33;;;;;;;4.20;1.27;;;18.20;53.10;;;;;;5072691;28;20175;-65
2022/01/20 08:25:58;;;;;;;2.45;1.13;;;18.20;53.10;;;;;;5071990;28;20576;-63
2022/01/20 08:28:27;;;;;;;3.17;1.27;;;18.20;53.00;;;;;;5072633;28;20182;-63
2022/01/20 08:30:52;;;;;;;2.90;1.30;;;18.30;53.20;;;;;;5072680;28;20178;-67
2022/01/20 08:33:18;;;;;;;2.70;1.20;;;18.30;53.30;;;;;;5071528;28;20182;-66
2022/01/20 08:35:43;;;;;;;4.47;1.45;;;18.40;53.10;;;;;;5072404;28;20265;-66
2022/01/20 08:38:12;;;;;;;2.88;1.50;;;18.30;53.20;;;;;;5072700;28;20206;-65
2022/01/20 08:40:37;;;;;;;3.42;1.40;;;18.20;53.30;;;;;;5071863;28;20201;-66
2022/01/20 08:43:03;;;;;;;3.80;1.05;;;18.20;53.40;;;;;;5072737;28;20190;-66
2022/01/20 08:45:30;;;;;;;3.28;1.10;;;18.10;53.30;;;;;;5072249;28;20307;-65
2022/01/20 08:47:56;;;;;;;2.38;1.35;;;18.10;53.30;;;;;;5071849;28;20189;-66
2022/01/20 08:50:23;;;;;;;3.80;1.33;;;18.10;53.30;;;;;;5072139;28;20226;-64
2022/01/20 08:52:48;;;;;;;2.67;1.13;;;18.10;53.30;;;;;;5072610;28;20178;-65
2022/01/20 08:55:14;;;;;;;2.75;1.40;;;18.10;53.20;;;;;;5071730;28;20185;-66
2022/01/20 08:57:43;;;;;;;3.67;1.77;;;18.10;53.20;;;;;;5071817;28;20221;-65
2022/01/20 09:00:09;;;;;;;2.15;1.20;;;18.10;53.20;;;;;;5072187;28;20178;-65
2022/01/20 09:02:36;;;;;;;4.22;1.30;;;18.20;53.10;;;;;;5071507;28;20174;-66
2022/01/20 09:05:02;;;;;;;2.17;1.20;;;18.20;53.00;;;;;;5072478;28;20182;-66
2022/01/20 09:07:28;;;;;;;5.78;1.45;;;18.20;53.00;;;;;;5071792;28;20591;-65
2022/01/20 09:09:55;;;;;;;1.65;1.13;;;18.20;53.00;;;;;;5072254;28;20633;-65
2022/01/20 09:17:42;;;;;;;3.83;1.23;;;18.10;53.10;;;;;;5071788;28;20217;-64
2022/01/20 09:20:08;;;;;;;2.33;1.55;;;18.10;53.10;;;;;;5072105;28;20170;-65
2022/01/20 09:22:34;;;;;;;2.22;1.13;;;18.10;53.10;;;;;;5071181;28;20368;-64
2022/01/20 09:24:59;;;;;;;2.80;1.35;;;18.00;53.10;;;;;;5072117;28;20170;-65
2022/01/20 09:27:25;;;;;;;2.17;1.00;;;18.00;53.20;;;;;;5071751;28;20257;-65
2022/01/20 09:29:50;;;;;;;3.00;1.10;;;17.90;53.30;;;;;;5071327;28;20303;-65
2022/01/20 09:32:16;;;;;;;3.03;1.27;;;17.90;53.40;;;;;;5072109;28;20602;-66
2022/01/20 09:34:42;;;;;;;2.05;1.17;;;17.90;53.50;;;;;;5071577;28;20527;-66
2022/01/20 09:37:08;;;;;;;4.63;1.13;;;17.90;53.40;;;;;;5071171;28;20202;-66
2022/01/20 09:39:34;;;;;;;2.83;1.23;;;17.90;53.40;;;;;;5071679;28;20170;-66
2022/01/20 09:41:59;;;;;;;4.43;1.73;;;17.90;53.40;;;;;;5071906;28;20174;-65
2022/01/20 09:44:25;;;;;;;2.78;1.10;;;17.90;53.30;;;;;;5071138;28;20209;-66
2022/01/20 09:46:50;;;;;;;3.35;1.40;;;18.00;53.30;;;;;;5072069;28;20179;-65
2022/01/20 09:49:16;;;;;;;2.42;1.13;;;18.00;53.30;;;;;;5071845;28;20175;-65
2022/01/20 09:51:42;;;;;;;4.78;1.10;;;18.00;53.30;;;;;;5070708;28;20230;-65
2022/01/20 09:54:07;;;;;;;2.15;1.00;;;18.00;53.20;;;;;;5071825;28;20582;-65
2022/01/20 09:56:33;;;;;;;3.35;1.35;;;18.10;53.20;;;;;;5071301;28;20206;-65
2022/01/20 09:58:59;;;;;;;2.53;1.08;;;18.10;53.10;;;;;;5070966;28;20197;-66
2022/01/20 10:01:42;;;;;;;2.70;1.08;;;18.10;53.10;;;;;;5071501;28;20178;-65
2022/01/20 10:04:30;;;;;;;3.03;1.52;;;18.10;53.10;;;;;;5070998;28;20706;-66
2022/01/20 10:07:02;;;;;;;2.30;1.00;;;18.10;52.90;;;;;;5071723;28;20203;-65
2022/01/20 10:09:39;;;;;;;3.13;1.30;;;18.10;52.90;;;;;;5071477;28;20205;-64
2022/01/20 10:12:06;;;;;;;2.05;1.17;;;18.10;52.90;;;;;;5070790;28;20591;-65
2022/01/20 10:14:46;;;;;;;2.10;1.20;;;18.00;53.00;;;;;;5071400;28;20262;-64
2022/01/20 10:17:21;;;;;;;2.85;1.00;;;18.00;53.10;;;;;;5071503;28;20230;-65
2022/01/20 10:19:54;;;;;;;2.65;1.85;;;18.00;53.10;;;;;;5070896;28;20181;-64
2022/01/20 10:22:24;;;;;;;3.08;1.60;;;18.00;53.10;;;;;;5071335;28;20186;-64
2022/01/20 10:25:02;;;;;;;3.10;1.33;;;18.00;53.20;;;;;;5073394;28;20547;-64
2022/01/20 10:27:30;;;;;;;2.65;1.35;;;18.00;53.10;;;;;;5074772;28;20197;-65
2022/01/20 10:30:03;;;;;;;2.88;1.20;;;18.00;53.10;;;;;;5075233;28;20247;-65
2022/01/20 10:32:37;;;;;;;2.97;1.25;;;18.00;53.20;;;;;;5074201;28;20270;-66
2022/01/20 10:35:03;;;;;;;2.60;1.38;;;18.10;53.20;;;;;;5074189;28;20182;-66
2022/01/20 10:37:30;;;;;;;2.33;1.20;;;18.10;53.10;;;;;;5074995;28;20630;-66
2022/01/20 10:40:06;;;;;;;3.88;1.20;;;18.10;53.10;;;;;;5074461;28;20224;-66
2022/01/20 10:42:37;;;;;;;2.15;1.10;;;18.00;53.10;;;;;;5074988;28;20178;-65
2022/01/20 10:45:03;;;;;;;2.65;0.88;;;18.00;53.10;;;;;;5075536;28;20178;-66
2022/01/20 10:47:30;;;;;;;2.95;1.10;;;17.90;53.20;;;;;;5074240;28;20178;-65
2022/01/20 10:50:07;;;;;;;2.67;1.23;;;17.90;53.30;;;;;;5075168;28;20254;-66
2022/01/20 10:52:39;;;;;;;1.95;1.20;;;17.90;53.40;;;;;;5074694;28;20182;-64
2022/01/20 10:55:07;;;;;;;3.03;1.33;;;17.90;53.30;;;;;;5074118;28;20177;-65
2022/01/20 10:57:33;;;;;;;1.58;1.00;;;18.00;53.30;;;;;;5074480;28;20218;-65
2022/01/20 11:00:02;;;;;;;5.18;1.77;;;17.90;53.30;;;;;;5074788;28;20612;-65
2022/01/20 11:02:31;;;;;;;3.90;1.30;;;17.90;53.30;;;;;;5074536;28;20182;-64
2022/01/20 11:05:00;;;;;;;3.28;1.30;;;18.00;53.30;;;;;;5074916;28;20511;-66
2022/01/20 11:07:27;;;;;;;2.38;1.35;;;17.90;53.30;;;;;;5073672;28;20269;-66
2022/01/20 11:10:03;;;;;;;3.35;1.35;;;17.90;53.30;;;;;;5074867;28;20292;-65
2022/01/20 11:12:31;;;;;;;1.63;1.00;;;17.90;53.30;;;;;;5074300;28;20204;-65
2022/01/20 11:14:57;;;;;;;1.90;1.20;;;17.90;53.20;;;;;;5074126;28;20266;-65
2022/01/20 11:17:25;;;;;;;3.03;1.48;;;17.90;53.20;;;;;;5074150;28;20206;-64
2022/01/20 11:19:50;;;;;;;3.20;1.40;;;17.80;53.40;;;;;;5056805;28;20177;-67
2022/01/20 11:22:18;;;;;;;1.98;1.40;;;17.80;53.50;;;;;;5073714;28;20171;-64
2022/01/20 11:24:56;;;;;;;1.95;0.98;;;17.80;53.60;;;;;;5074525;28;20174;-65
2022/01/20 11:27:21;;;;;;;3.28;1.42;;;17.80;53.60;;;;;;5074479;28;20705;-68
2022/01/20 11:29:50;;;;;;;2.72;1.30;;;17.80;53.60;;;;;;5074348;28;20261;-66
2022/01/20 11:32:20;;;;;;;2.90;1.10;;;17.80;53.50;;;;;;5074410;28;20170;-65
2022/01/20 11:35:09;;;;;;;2.72;1.25;;;17.80;53.40;;;;;;5074050;28;20178;-66
2022/01/20 11:37:42;;;;;;;2.10;0.90;;;17.80;53.30;;;;;;5072903;28;20225;-65
2022/01/20 11:40:19;;;;;;;2.50;1.20;;;17.90;53.40;;;;;;5072970;28;20593;-65
2022/01/20 11:43:09;;;;;;;2.97;1.10;;;17.90;53.30;;;;;;5073270;28;20193;-65
2022/01/20 11:45:42;;;;;;;3.40;1.20;;;17.90;53.30;;;;;;5074629;28;20170;-62
2022/01/20 11:48:18;;;;;;;2.53;1.23;;;17.80;53.40;;;;;;5074012;28;20174;-62
2022/01/20 11:50:44;;;;;;;3.38;1.30;;;17.70;53.60;;;;;;5072712;28;20240;-63
2022/01/20 11:53:17;;;;;;;2.95;1.27;;;17.70;53.70;;;;;;5073609;28;20535;-64
2022/01/20 11:55:47;;;;;;;2.88;1.48;;;17.70;53.80;;;;;;5073300;28;20270;-62
2022/01/20 11:58:13;;;;;;;3.05;1.52;;;17.80;53.70;;;;;;5072502;28;20668;-63
2022/01/20 12:00:41;;;;;;;1.98;1.38;;;17.90;53.60;;;;;;5073258;28;20210;-62
2022/01/20 12:03:12;;;;;;;3.75;1.00;;;17.80;53.70;;;;;;5073610;28;20217;-62
2022/01/20 12:05:37;;;;;;;4.85;1.55;;;17.70;53.70;;;;;;5072263;28;20174;-62
2022/01/20 12:08:12;;;;;;;4.80;1.48;;;17.70;54.40;;;;;;5072901;28;20175;-62
2022/01/20 12:10:38;;;;;;;2.38;1.45;;;17.70;53.90;;;;;;5072411;28;20240;-61
2022/01/20 12:13:08;;;;;;;3.47;1.33;;;17.60;53.90;;;;;;5073148;28;20182;-61
2022/01/20 12:15:34;;;;;;;2.53;1.30;;;17.60;54.00;;;;;;5072717;28;20184;-62
2022/01/20 12:17:59;;;;;;;2.13;0.80;;;17.60;54.10;;;;;;5070917;28;20583;-66
2022/01/20 12:20:25;;;;;;;2.17;1.25;;;17.70;54.10;;;;;;5072941;28;20212;-64
2022/01/20 12:22:52;;;;;;;3.33;1.58;;;17.80;53.90;;;;;;5072982;28;20291;-60
2022/01/20 12:25:22;;;;;;;1.98;1.42;;;17.90;53.90;;;;;;5072566;28;20182;-60
2022/01/20 12:27:47;;;;;;;2.65;1.38;;;17.90;53.90;;;;;;5073154;28;20186;-60
2022/01/20 12:30:23;;;;;;;2.97;1.30;;;17.90;53.70;;;;;;5073070;28;20166;-63
2022/01/20 12:33:11;;;;;;;7.53;1.40;;;17.90;53.80;;;;;;5072093;28;20178;-63
2022/01/20 12:35:42;;;;;;;1.58;1.05;;;17.80;53.80;;;;;;5072848;28;20171;-65
2022/01/20 12:38:25;;;;;;;3.08;1.40;;;17.80;53.90;;;;;;5072749;28;20214;-65
2022/01/20 12:41:10;;;;;;;2.85;1.20;;;17.80;53.90;;;;;;5072025;28;20174;-64
2022/01/20 12:43:54;;;;;;;3.15;1.40;;;17.90;54.10;;;;;;5072402;28;20182;-64
2022/01/20 12:46:21;;;;;;;2.90;1.45;;;17.90;54.10;;;;;;5071995;28;20177;-64
2022/01/20 12:49:08;;;;;;;4.07;1.30;;;17.90;54.10;;;;;;5072463;28;20209;-63
2022/01/20 12:51:41;;;;;;;2.00;1.20;;;17.80;54.10;;;;;;5071963;28;20630;-65
2022/01/20 12:54:08;;;;;;;2.80;1.25;;;17.80;54.20;;;;;;5067680;28;20603;-65
2022/01/20 12:56:37;;;;;;;4.18;1.20;;;17.80;54.20;;;;;;5060384;28;20544;-65
2022/01/20 12:59:05;;;;;;;4.28;1.20;;;17.80;54.10;;;;;;5061488;28;20186;-66
2022/01/20 13:01:44;;;;;;;2.35;1.17;;;17.80;54.10;;;;;;5071127;28;20274;-65
2022/01/20 13:04:11;;;;;;;3.38;1.33;;;17.80;54.00;;;;;;5055198;28;20183;-65
2022/01/20 13:06:53;;;;;;;2.30;1.38;;;17.70;54.20;;;;;;5050319;28;20171;-65
2022/01/20 13:09:21;;;;;;;2.10;0.90;;;17.60;54.20;;;;;;5051988;28;20182;-64
2022/01/20 13:11:54;;;;;;;2.05;1.08;;;17.60;54.20;;;;;;5059900;28;20545;-65
2022/01/20 13:14:22;;;;;;;2.72;1.20;;;17.70;54.20;;;;;;5071194;28;20170;-64
2022/01/20 13:16:55;;;;;;;1.98;0.98;;;17.70;54.10;;;;;;5071982;28;20202;-64
2022/01/20 13:19:30;;;;;;;4.38;1.15;;;17.80;54.00;;;;;;5071673;28;20183;-64
2022/01/20 13:21:56;;;;;;;2.38;0.95;;;17.80;53.90;;;;;;5069992;28;20683;-64
2022/01/20 13:24:28;;;;;;;1.92;1.20;;;17.80;53.90;;;;;;5071604;28;20186;-65
2022/01/20 13:26:54;;;;;;;2.97;1.17;;;17.70;54.00;;;;;;5071378;28;20629;-65
2022/01/20 13:29:21;;;;;;;2.30;1.08;;;17.80;54.00;;;;;;5058095;28;20199;-65
2022/01/20 13:31:48;;;;;;;3.15;1.17;;;17.80;53.90;;;;;;5051754;28;20205;-66
2022/01/20 13:34:15;;;;;;;2.13;1.25;;;17.80;53.90;;;;;;5051769;28;20361;-67
2022/01/20 13:36:42;;;;;;;3.30;1.10;;;17.80;53.80;;;;;;5050515;28;20186;-66
2022/01/20 13:39:08;;;;;;;2.72;1.33;;;17.80;53.90;;;;;;5051670;28;20293;-66
2022/01/20 13:41:34;;;;;;;2.70;1.10;;;17.70;53.90;;;;;;5051204;28;20604;-66
2022/01/20 13:46:46;;;;;;;2.08;1.20;;;17.70;54.00;;;;;;5051364;28;20178;-66
2022/01/20 13:49:13;;;;;;;3.35;1.23;;;17.80;53.90;;;;;;5051311;28;20182;-66
2022/01/20 13:51:38;;;;;;;2.70;1.00;;;17.80;53.90;;;;;;5050722;28;20650;-65
2022/01/20 13:54:04;;;;;;;1.77;0.80;;;17.80;53.90;;;;;;5051415;28;20175;-65
2022/01/20 13:56:30;;;;;;;2.25;0.90;;;17.70;53.80;;;;;;5050269;28;20192;-66